Old Allen, Kentucky
Current Conditions -  °F | °C
As of 1:15 PM on Thursday 29 Jan 2015 (Local Time) from KPBX Reporting Station
Overcast Overcast  
Wind Chill: 50°   Ceiling: 4400
Heat Index: 50°   Visibility: 10mi
Dew Point: 37°   Wind: 10mph
Humidity: 60%   Direction: 190°S
Pressure: 29.93"   Gusts: 16mph
Location:  37.5917°N, 82.646°W
Report Text: KPBX 291815Z AUTO 19009G14KT 130V240 10SM OVC044 10/03 A2993 RMK AO2 T01000025
Loading
Personal Weather Stations






























Interactive Weather Map New forecast layout! Learn more

10-Day Weather Forecast

Advertisements
Track Severe Weather on mobile